Groton New London Airport
KGON : rendu visible

Aérodrome :











RETROUVEZ-NOUS SUR...

 
LOGIN :

S'inscrire | Disclaimer

   EN    FR    IT 

 









Légende :    VFR   VFR Marginal   IFR   IFR Intensif   IFR Très Intensif
Visi : 
Plafond : 
>= 8 km
>= 3000ft
5 à 8 km
1000 à 3000 ft
1500m à 5 km
500 à 1000 ft
800 à 1500m
200 à 500 ft
< 800m
< 200 ft
Symboles :   Orages  Brouillard  Fortes neiges  Fortes précipitations  Vent > 20 kt






- Altitude de l'aérodrome : 9 ft
- Code IATA : GON


KGON - Groton New London

DERNIER METAR :
  • 180856Z AUTO 32006KT 10SM CLR M09/M18 A3060 RMK AO2 SLP363 T10941183 58002

METARs EXPIRÉS :
  • 180756Z AUTO 30008KT 10SM CLR M09/M18 A3062 RMK AO2 SLP369 T10941183
  • 180656Z AUTO 33009KT 10SM CLR M09/M18 A3063 RMK AO2 SLP370 T10941183

TAF KGON
Valide du 18 à 06h jusqu'au 19 à 06h UTC


180531Z 1806/1906 32008KT P6SM BKN200
FM181200 VRB04KT P6SM BKN150
FM181900 18007KT P6SM VCSH BKN060 OVC100
FM182100 18009KT 2SM -SN BKN030 OVC060
FM182200 18011KT 1SM -SN BR OVC005
FM190000 18012KT 1/2SM SN OVC003
FM190100 19013KT 1SM -SNRA BR OVC003
FM190300 20013KT 2SM -RA BR OVC003



MET'MAP, la Météo Aéronautique d'un coup d'oeil ! - Copyright ORBIFLY Décembre 2007 - Disclaimer

ORBIFLY MET'MAP TEAM :

Programmation & Développement : Alexandra Zaïnal
Sur une idée originale de : Baudouin d'Aumeries
Assistance à la programmation : Marc-Olivier Méhu
Soutien technique & logistique : Manuel Goepfert

Contact : metmap@orbifly.com




SOURCES & CREDITS :

   NOAA       Earth
Advisory